Time;durP1;ratioP1;P1;durP2;ratioP2;P2;SDS_P1;SDS_P2;PMS_P1;PMS_P2;Temp;Humidity;BMP_temperature;BMP_pressure;BME280_temperature;BME280_humidity;BME280_pressure;Samples;Min_cycle;Max_cycle;Signal;HPM_P1;HPM_P2
2022/01/18 00:02:02;;;;;;;16.52;11.07;;;8.40;83.00;;;;;;5028051;28;20527;-78
2022/01/18 00:04:30;;;;;;;19.25;11.70;;;8.30;82.90;;;;;;5023148;28;20099;-72
2022/01/18 00:06:56;;;;;;;18.02;11.07;;;8.20;83.50;;;;;;5021051;28;20072;-74
2022/01/18 00:09:25;;;;;;;19.05;11.13;;;8.20;83.80;;;;;;5021646;28;20045;-72
2022/01/18 00:12:12;;;;;;;17.08;10.75;;;8.30;83.20;;;;;;5025158;28;20222;-74
2022/01/18 00:14:45;;;;;;;18.30;11.63;;;8.40;81.10;;;;;;5037165;28;20102;-73
2022/01/18 00:19:55;;;;;;;18.27;11.13;;;8.30;84.80;;;;;;5042036;28;20490;-75
2022/01/18 00:22:27;;;;;;;22.60;13.13;;;8.30;85.30;;;;;;5029674;28;20052;-76
2022/01/18 00:24:57;;;;;;;20.13;12.17;;;8.20;85.70;;;;;;5025908;28;20063;-73
2022/01/18 00:27:23;;;;;;;23.38;14.48;;;8.20;86.30;;;;;;5028535;28;20046;-75
2022/01/18 00:30:03;;;;;;;22.30;13.07;;;8.00;86.60;;;;;;5032041;28;20125;-74
2022/01/18 00:32:54;;;;;;;19.42;11.88;;;8.00;87.00;;;;;;5038426;28;20073;-74
2022/01/18 00:35:21;;;;;;;20.83;12.32;;;7.90;87.50;;;;;;5040217;28;20164;-74
2022/01/18 00:37:53;;;;;;;20.80;12.95;;;7.90;87.50;;;;;;5041462;28;20060;-74
2022/01/18 00:40:19;;;;;;;18.80;12.87;;;7.80;87.80;;;;;;5043621;28;20042;-72
2022/01/18 00:42:46;;;;;;;20.83;11.98;;;7.90;88.00;;;;;;5043639;28;20432;-73
2022/01/18 00:45:12;;;;;;;22.95;12.32;;;8.00;88.00;;;;;;5046895;28;20061;-76
2022/01/18 00:47:38;;;;;;;18.17;11.75;;;7.90;88.30;;;;;;5040329;28;20037;-74
2022/01/18 00:50:08;;;;;;;18.55;12.73;;;7.80;88.10;;;;;;5041986;28;20047;-74
2022/01/18 00:52:41;;;;;;;22.50;12.82;;;7.70;88.30;;;;;;5041338;28;20068;-73
2022/01/18 00:55:07;;;;;;;20.92;11.95;;;7.60;88.50;;;;;;5036398;28;20041;-72
2022/01/18 00:57:33;;;;;;;20.90;13.40;;;7.60;88.10;;;;;;5041909;28;20154;-77
2022/01/18 01:00:00;;;;;;;20.38;11.63;;;7.70;88.10;;;;;;5043819;28;20390;-73
2022/01/18 01:02:26;;;;;;;24.42;13.00;;;7.60;88.60;;;;;;5036444;28;20029;-74
2022/01/18 01:04:52;;;;;;;21.42;12.25;;;7.50;88.20;;;;;;5027436;28;20052;-77
2022/01/18 01:07:21;;;;;;;19.48;12.60;;;7.40;88.50;;;;;;5043120;28;20041;-73
2022/01/18 01:09:50;;;;;;;20.00;12.93;;;7.50;88.10;;;;;;5043526;28;20496;-72
2022/01/18 01:12:20;;;;;;;21.73;12.23;;;7.50;88.80;;;;;;5039636;28;20516;-78
2022/01/18 01:14:50;;;;;;;21.33;13.68;;;7.40;89.20;;;;;;5044037;28;20123;-73
2022/01/18 01:42:07;;;;;;;23.98;13.63;;;7.40;90.20;;;;;;4998114;28;20461;-75
2022/01/18 01:44:44;;;;;;;21.65;13.18;;;7.20;90.30;;;;;;5036145;28;20370;-77
2022/01/18 01:47:17;;;;;;;26.05;12.75;;;7.30;90.40;;;;;;5041338;28;20049;-71
2022/01/18 01:49:43;;;;;;;;;;;7.30;90.70;;;;;;5043584;28;20029;-72
2022/01/18 01:52:12;;;;;;;24.17;13.98;;;7.30;90.60;;;;;;5037991;28;19924;-76
2022/01/18 01:54:39;;;;;;;22.63;13.82;;;7.40;90.70;;;;;;5035736;28;20090;-75
2022/01/18 01:57:07;;;;;;;20.05;13.57;;;7.40;90.70;;;;;;5027700;28;20575;-73
2022/01/18 01:59:34;;;;;;;23.95;13.88;;;7.30;90.90;;;;;;5046934;28;20036;-75
2022/01/18 02:02:02;;;;;;;21.35;13.93;;;7.30;90.80;;;;;;5025153;28;20045;-72
2022/01/18 02:04:30;;;;;;;22.00;13.57;;;7.20;90.80;;;;;;5041081;28;20037;-74
2022/01/18 02:06:57;;;;;;;19.63;12.98;;;7.30;91.00;;;;;;5036089;28;20037;-78
2022/01/18 02:09:24;;;;;;;23.02;13.38;;;7.60;90.00;;;;;;5037211;28;20029;-74
2022/01/18 02:11:51;;;;;;;19.45;12.93;;;7.70;90.10;;;;;;5040158;28;20048;-73
2022/01/18 02:14:22;;;;;;;21.65;13.18;;;7.70;89.00;;;;;;5044169;28;20087;-72
2022/01/18 02:22:18;;;;;;;25.65;14.88;;;7.50;90.10;;;;;;5038837;28;20091;-72
2022/01/18 02:24:45;;;;;;;22.83;14.70;;;7.40;90.50;;;;;;5039483;28;20049;-72
2022/01/18 02:27:11;;;;;;;24.25;14.43;;;7.20;90.80;;;;;;5040709;28;20045;-70
2022/01/18 02:29:37;;;;;;;20.85;14.60;;;7.10;90.90;;;;;;5038883;28;20469;-76
2022/01/18 02:32:05;;;;;;;22.33;15.23;;;7.00;91.10;;;;;;5044632;28;20140;-72
2022/01/18 02:34:31;;;;;;;22.60;14.10;;;7.10;91.30;;;;;;5038375;28;20525;-74
2022/01/18 02:36:58;;;;;;;25.17;14.82;;;7.40;91.10;;;;;;5038765;28;20423;-73
2022/01/18 02:39:27;;;;;;;25.92;15.98;;;7.50;91.00;;;;;;5037008;28;20041;-71
2022/01/18 02:42:07;;;;;;;22.38;14.82;;;7.50;90.80;;;;;;5035374;28;20518;-71
2022/01/18 02:44:34;;;;;;;27.02;15.38;;;7.50;90.90;;;;;;5039046;28;20382;-77
2022/01/18 02:47:02;;;;;;;26.70;16.05;;;7.40;90.80;;;;;;5034136;28;20561;-72
2022/01/18 02:49:29;;;;;;;22.10;15.25;;;7.30;90.90;;;;;;5035061;28;20037;-71
2022/01/18 02:51:57;;;;;;;22.77;14.07;;;7.20;91.10;;;;;;5041076;28;20132;-77
2022/01/18 02:54:24;;;;;;;25.67;15.80;;;7.10;91.30;;;;;;5039813;28;20033;-71
2022/01/18 02:56:57;;;;;;;22.08;15.10;;;7.10;91.50;;;;;;5038321;28;20036;-74
2022/01/18 02:59:49;;;;;;;22.17;14.80;;;7.10;91.70;;;;;;5038627;28;20033;-77
2022/01/18 03:05:04;;;;;;;23.38;15.73;;;7.20;92.10;;;;;;5038667;28;20925;-72
2022/01/18 03:07:32;;;;;;;21.48;14.00;;;7.00;92.00;;;;;;5040334;28;20471;-77
2022/01/18 03:09:58;;;;;;;25.73;14.95;;;7.00;92.40;;;;;;5038510;28;20462;-72
2022/01/18 03:12:30;;;;;;;26.10;16.67;;;7.20;92.30;;;;;;5034824;28;20112;-73
2022/01/18 03:14:57;;;;;;;24.70;16.13;;;7.10;92.20;;;;;;5037945;28;20033;-70
2022/01/18 03:17:23;;;;;;;26.95;15.70;;;7.00;92.70;;;;;;5037622;28;20048;-76
2022/01/18 03:19:49;;;;;;;28.48;16.20;;;7.00;92.70;;;;;;5015634;28;20037;-75
2022/01/18 03:22:15;;;;;;;25.42;16.73;;;6.90;92.90;;;;;;5040321;28;20095;-71
2022/01/18 03:25:24;;;;;;;26.05;15.75;;;6.90;92.70;;;;;;5041451;28;20034;-72
2022/01/18 03:28:05;;;;;;;27.25;16.77;;;6.90;92.80;;;;;;5038203;28;20512;-74
2022/01/18 03:30:35;;;;;;;29.27;17.63;;;6.90;93.10;;;;;;5038773;28;20388;-71
2022/01/18 03:33:03;;;;;;;25.02;16.35;;;7.00;92.20;;;;;;5040259;28;20045;-71
2022/01/18 03:35:30;;;;;;;25.60;16.17;;;7.50;91.90;;;;;;5037022;28;20092;-71
2022/01/18 03:37:59;;;;;;;28.42;17.52;;;7.40;91.90;;;;;;5038099;28;20549;-75
2022/01/18 03:40:25;;;;;;;25.85;17.60;;;7.30;91.80;;;;;;5043549;28;20071;-71
2022/01/18 03:42:52;;;;;;;30.33;18.17;;;7.10;92.10;;;;;;5042095;28;20125;-76
2022/01/18 03:45:29;;;;;;;27.35;17.27;;;7.10;92.20;;;;;;5041381;28;20596;-72
2022/01/18 03:47:57;;;;;;;29.52;18.17;;;7.20;92.40;;;;;;5039665;28;20033;-73
2022/01/18 03:50:26;;;;;;;28.95;18.40;;;7.00;92.30;;;;;;5045271;28;20098;-72
2022/01/18 03:52:53;;;;;;;29.58;18.73;;;6.90;92.50;;;;;;5043277;28;20037;-75
2022/01/18 03:55:21;;;;;;;25.85;17.90;;;6.80;92.80;;;;;;5045508;28;20127;-71
2022/01/18 03:57:48;;;;;;;28.52;18.90;;;6.90;92.80;;;;;;5044132;28;20030;-72
2022/01/18 04:00:18;;;;;;;29.58;19.30;;;7.00;92.60;;;;;;5029822;28;20049;-75
2022/01/18 04:02:45;;;;;;;27.98;18.35;;;7.10;92.20;;;;;;5046820;28;20048;-76
2022/01/18 04:05:12;;;;;;;30.55;18.73;;;7.10;92.40;;;;;;5040870;28;20384;-71
2022/01/18 04:07:39;;;;;;;29.98;19.52;;;7.10;92.50;;;;;;5046989;28;20105;-75
2022/01/18 04:10:07;;;;;;;30.27;19.77;;;7.10;92.60;;;;;;5035842;28;20396;-73
2022/01/18 04:12:36;;;;;;;29.02;19.00;;;7.00;92.80;;;;;;5040498;28;20392;-76
2022/01/18 04:15:05;;;;;;;29.65;20.45;;;6.90;92.90;;;;;;5039033;28;20048;-75
2022/01/18 04:30:58;;;;;;;31.58;20.50;;;7.00;93.20;;;;;;5025116;28;20046;-74
2022/01/18 04:33:24;;;;;;;29.23;20.58;;;7.00;93.40;;;;;;5037904;28;20090;-75
2022/01/18 04:35:50;;;;;;;31.70;20.92;;;6.90;93.50;;;;;;5045277;28;20041;-74
2022/01/18 04:38:16;;;;;;;31.95;20.20;;;6.90;93.60;;;;;;5040606;28;20158;-74
2022/01/18 04:40:45;;;;;;;33.50;21.27;;;6.80;93.80;;;;;;5037237;28;20051;-76
2022/01/18 04:43:24;;;;;;;34.58;21.23;;;6.90;93.70;;;;;;5042765;28;20041;-77
2022/01/18 04:48:36;;;;;;;32.60;21.67;;;6.80;94.00;;;;;;5041932;28;20117;-73
2022/01/18 04:51:10;;;;;;;34.30;23.52;;;6.70;94.10;;;;;;5039480;28;20449;-77
2022/01/18 04:53:47;;;;;;;30.50;21.13;;;6.60;94.30;;;;;;5029001;28;20037;-76
2022/01/18 04:56:16;;;;;;;32.88;21.90;;;6.50;94.50;;;;;;5041126;28;20041;-76
2022/01/18 04:58:43;;;;;;;32.80;21.15;;;6.50;94.50;;;;;;5047296;28;20115;-76
2022/01/18 05:01:10;;;;;;;34.63;21.60;;;6.60;94.50;;;;;;5038609;28;20037;-77
2022/01/18 05:03:36;;;;;;;26.88;19.15;;;6.80;93.90;;;;;;5040356;28;20038;-74
2022/01/18 05:06:09;;;;;;;30.95;20.08;;;7.00;93.60;;;;;;5039855;28;20072;-76
2022/01/18 05:08:36;;;;;;;31.40;20.25;;;7.00;93.50;;;;;;5044894;28;20543;-75
2022/01/18 05:11:05;;;;;;;30.23;19.77;;;6.90;93.50;;;;;;5035883;28;20119;-74
2022/01/18 05:24:23;;;;;;;26.02;16.25;;;7.00;93.20;;;;;;4995441;28;20128;-73
2022/01/18 05:26:50;;;;;;;23.23;15.45;;;7.10;92.80;;;;;;5039824;28;20046;-77
2022/01/18 05:29:16;;;;;;;23.88;14.77;;;7.50;92.00;;;;;;5043963;28;20045;-73
2022/01/18 05:31:44;;;;;;;24.02;16.42;;;7.40;92.00;;;;;;5009827;28;20037;-76
2022/01/18 05:34:11;;;;;;;24.48;15.63;;;7.30;92.40;;;;;;5024911;28;20515;-71
2022/01/18 05:36:38;;;;;;;23.50;14.95;;;7.10;92.70;;;;;;5042475;28;20480;-73
2022/01/18 05:39:09;;;;;;;22.95;14.60;;;7.00;93.00;;;;;;5039967;28;20033;-73
2022/01/18 05:41:35;;;;;;;24.25;14.18;;;7.00;92.90;;;;;;5040931;28;20033;-76
2022/01/18 05:44:02;;;;;;;22.95;14.90;;;7.30;92.70;;;;;;5042514;28;20040;-71
2022/01/18 05:46:28;;;;;;;21.25;14.45;;;7.20;92.60;;;;;;5038801;28;20032;-71
2022/01/18 05:48:54;;;;;;;24.40;15.48;;;7.10;92.80;;;;;;5039468;28;20029;-76
2022/01/18 05:51:20;;;;;;;19.63;14.02;;;7.10;93.00;;;;;;5029540;28;20121;-72
2022/01/18 05:53:46;;;;;;;20.50;13.73;;;7.00;92.90;;;;;;5038971;28;20072;-72
2022/01/18 05:56:13;;;;;;;23.85;14.73;;;7.40;92.20;;;;;;5042506;28;20065;-73
2022/01/18 05:58:44;;;;;;;20.58;14.68;;;7.20;92.30;;;;;;5039524;28;20051;-72
2022/01/18 06:01:13;;;;;;;23.98;13.93;;;7.20;92.60;;;;;;5040028;28;20041;-75
2022/01/18 06:03:54;;;;;;;22.30;13.80;;;7.10;92.70;;;;;;5045781;28;20029;-75
2022/01/18 06:09:04;;;;;;;22.60;14.30;;;7.00;92.80;;;;;;5039243;28;20099;-77
2022/01/18 06:11:31;;;;;;;21.00;13.60;;;7.00;92.90;;;;;;5034408;28;21009;-75
2022/01/18 06:13:57;;;;;;;20.63;14.25;;;7.30;92.20;;;;;;5043508;28;20151;-71
2022/01/18 06:16:23;;;;;;;19.90;13.27;;;7.50;91.90;;;;;;5037435;28;20045;-76
2022/01/18 06:18:51;;;;;;;22.17;13.98;;;7.50;91.90;;;;;;5038816;28;20040;-75
2022/01/18 06:21:18;;;;;;;21.27;12.43;;;7.50;91.50;;;;;;5034793;28;20045;-74
2022/01/18 06:23:44;;;;;;;20.33;12.70;;;7.50;91.30;;;;;;5038966;28;20173;-72
2022/01/18 06:26:15;;;;;;;20.13;12.82;;;7.40;91.40;;;;;;5043662;28;20033;-75
2022/01/18 06:28:42;;;;;;;23.95;14.57;;;7.60;91.60;;;;;;5033186;28;20044;-77
2022/01/18 06:31:09;;;;;;;26.67;15.50;;;7.50;92.10;;;;;;5042163;28;20049;-72
2022/01/18 06:33:35;;;;;;;25.52;16.02;;;7.30;92.70;;;;;;5043050;28;20069;-76
2022/01/18 06:36:02;;;;;;;23.77;16.23;;;7.20;93.20;;;;;;5044471;28;20037;-72
2022/01/18 06:38:28;;;;;;;25.25;16.38;;;7.10;93.60;;;;;;5042089;28;20040;-77
2022/01/18 06:40:55;;;;;;;22.88;15.38;;;6.90;93.60;;;;;;5041379;28;20048;-72
2022/01/18 06:43:21;;;;;;;20.85;14.23;;;6.90;93.50;;;;;;5044623;28;20065;-73
2022/01/18 06:45:47;;;;;;;25.80;15.93;;;6.90;93.00;;;;;;5042753;28;20130;-76
2022/01/18 06:48:14;;;;;;;23.90;15.57;;;6.80;92.80;;;;;;5036148;28;20041;-72
2022/01/18 06:50:42;;;;;;;22.52;15.20;;;6.80;92.90;;;;;;5039591;28;20401;-74
2022/01/18 06:53:10;;;;;;;22.63;15.30;;;6.70;93.00;;;;;;5029396;28;20057;-74
2022/01/18 06:55:38;;;;;;;23.73;14.95;;;6.70;92.90;;;;;;5043559;28;20043;-72
2022/01/18 06:58:04;;;;;;;24.33;15.15;;;6.70;92.60;;;;;;5040684;28;20169;-76
2022/01/18 07:00:31;;;;;;;22.60;15.15;;;6.80;92.60;;;;;;5036047;28;20041;-74
2022/01/18 07:02:58;;;;;;;22.67;14.15;;;6.80;92.50;;;;;;5036149;28;20080;-75
2022/01/18 07:05:25;;;;;;;21.42;13.80;;;6.80;92.60;;;;;;5044649;28;20039;-73
2022/01/18 07:07:52;;;;;;;21.52;14.05;;;6.60;92.60;;;;;;5034734;28;20091;-75
2022/01/18 07:10:20;;;;;;;20.95;13.93;;;6.60;92.80;;;;;;5043720;28;20049;-73
2022/01/18 07:12:45;;;;;;;18.13;12.88;;;6.70;93.20;;;;;;5040179;28;20126;-76
2022/01/18 07:15:11;;;;;;;17.42;12.43;;;6.80;93.00;;;;;;5048912;28;20472;-73
2022/01/18 07:17:38;;;;;;;21.60;11.80;;;6.80;92.80;;;;;;5042437;28;20041;-74
2022/01/18 07:20:06;;;;;;;19.27;12.70;;;7.30;91.80;;;;;;5039987;28;20052;-76
2022/01/18 07:22:32;;;;;;;20.00;11.88;;;7.50;91.60;;;;;;5041757;28;20037;-73
2022/01/18 07:24:59;;;;;;;21.85;12.85;;;7.50;91.20;;;;;;5040890;28;20071;-75
2022/01/18 07:27:25;;;;;;;21.15;11.98;;;7.50;91.30;;;;;;5029496;28;20037;-74
2022/01/18 07:29:51;;;;;;;18.50;12.13;;;7.70;91.00;;;;;;5043308;28;20358;-73
2022/01/18 07:32:18;;;;;;;18.67;12.60;;;7.60;91.10;;;;;;5045122;28;20033;-75
2022/01/18 07:34:55;;;;;;;18.65;13.02;;;7.50;91.10;;;;;;5021932;28;20037;-71
2022/01/18 07:37:23;;;;;;;28.05;14.05;;;7.50;91.20;;;;;;5044507;28;20041;-74
2022/01/18 07:39:51;;;;;;;22.52;13.30;;;7.60;91.60;;;;;;5046928;28;20063;-76
2022/01/18 07:42:19;;;;;;;21.75;12.48;;;7.60;91.30;;;;;;5048587;28;20056;-76
2022/01/18 07:44:45;;;;;;;18.27;12.38;;;7.60;91.40;;;;;;5042225;28;20116;-74
2022/01/18 07:47:12;;;;;;;18.02;11.05;;;7.80;90.60;;;;;;5028914;28;20125;-74
2022/01/18 07:49:39;;;;;;;20.52;12.73;;;8.20;90.30;;;;;;5039350;28;20473;-74
2022/01/18 07:52:05;;;;;;;18.17;11.98;;;8.20;90.20;;;;;;5037694;28;20033;-73
2022/01/18 07:54:32;;;;;;;16.83;10.98;;;8.30;90.10;;;;;;5048623;28;20033;-76
2022/01/18 07:56:58;;;;;;;19.65;12.18;;;8.30;90.00;;;;;;5046698;28;20049;-76
2022/01/18 07:59:27;;;;;;;24.63;11.85;;;8.30;89.50;;;;;;5044591;28;20041;-75
2022/01/18 08:01:54;;;;;;;18.65;12.68;;;8.20;89.80;;;;;;5032504;28;20034;-77
2022/01/18 08:04:20;;;;;;;23.73;14.50;;;8.10;90.30;;;;;;5023255;28;20041;-75
2022/01/18 08:06:46;;;;;;;24.38;14.48;;;7.90;90.90;;;;;;5049422;28;20032;-74
2022/01/18 08:09:16;;;;;;;21.25;14.02;;;7.80;91.10;;;;;;5040231;28;20034;-77
2022/01/18 08:11:44;;;;;;;22.30;14.35;;;7.80;91.30;;;;;;5038609;28;20041;-72
2022/01/18 08:14:13;;;;;;;22.23;15.18;;;7.80;91.40;;;;;;5040982;28;20061;-77
2022/01/18 08:19:33;;;;;;;24.58;14.35;;;7.70;91.50;;;;;;5039460;28;21877;-77
2022/01/18 08:22:00;;;;;;;21.65;14.55;;;8.00;90.50;;;;;;5036073;28;20049;-75
2022/01/18 08:24:27;;;;;;;21.92;15.20;;;8.10;90.20;;;;;;5040907;28;20456;-73
2022/01/18 08:26:54;;;;;;;24.50;15.40;;;8.10;90.40;;;;;;5037572;28;20083;-73
2022/01/18 08:29:23;;;;;;;24.10;16.13;;;8.50;90.50;;;;;;5039754;28;20413;-72
2022/01/18 08:31:50;;;;;;;21.30;14.45;;;10.60;88.60;;;;;;5039578;28;20029;-77
2022/01/18 08:34:16;;;;;;;20.20;14.45;;;12.10;84.20;;;;;;5041188;28;20052;-73
2022/01/18 08:36:42;;;;;;;18.08;13.32;;;13.20;81.40;;;;;;5040110;28;20037;-77
2022/01/18 08:39:08;;;;;;;20.83;13.90;;;14.10;79.20;;;;;;5038535;28;20245;-75
2022/01/18 08:41:35;;;;;;;23.25;15.13;;;14.90;78.00;;;;;;5043186;28;20029;-72
2022/01/18 08:44:01;;;;;;;20.67;14.07;;;15.20;76.80;;;;;;5040129;28;20110;-78
2022/01/18 08:46:28;;;;;;;31.45;14.23;;;14.80;75.70;;;;;;5043496;28;20104;-74
2022/01/18 08:48:55;;;;;;;26.80;16.00;;;15.30;77.40;;;;;;5040107;28;20620;-77
2022/01/18 08:51:21;;;;;;;24.92;15.45;;;15.10;77.30;;;;;;5040863;28;20033;-74
2022/01/18 08:53:50;;;;;;;26.13;15.05;;;15.10;76.00;;;;;;5039429;28;20132;-74
2022/01/18 08:56:17;;;;;;;21.00;14.38;;;15.40;76.20;;;;;;5039126;28;20076;-74
2022/01/18 08:58:45;;;;;;;22.60;14.38;;;16.00;75.90;;;;;;5057693;28;20037;-79
2022/01/18 09:01:12;;;;;;;20.13;14.43;;;16.40;74.70;;;;;;5028120;28;20041;-72
2022/01/18 09:03:39;;;;;;;21.95;14.48;;;17.00;73.90;;;;;;5030053;28;20060;-76
2022/01/18 09:06:06;;;;;;;20.05;14.18;;;16.80;73.00;;;;;;5023686;28;20052;-72
2022/01/18 09:08:34;;;;;;;17.23;12.98;;;16.30;73.20;;;;;;5027882;28;20083;-78
2022/01/18 09:11:00;;;;;;;23.80;15.23;;;15.80;72.20;;;;;;5033350;28;20037;-75
2022/01/18 09:13:28;;;;;;;27.70;13.68;;;14.90;73.30;;;;;;5027320;28;20041;-79
2022/01/18 09:15:55;;;;;;;21.27;14.80;;;14.00;75.10;;;;;;5025307;28;20033;-73
2022/01/18 09:18:22;;;;;;;24.27;15.35;;;13.40;76.30;;;;;;5031256;28;20036;-76
2022/01/18 09:20:49;;;;;;;21.15;13.05;;;13.20;77.10;;;;;;5022966;28;20456;-71
2022/01/18 09:23:16;;;;;;;17.48;11.35;;;12.90;76.10;;;;;;5017992;28;20117;-76
2022/01/18 09:25:42;;;;;;;17.45;12.07;;;12.60;74.90;;;;;;5032066;28;20037;-77
2022/01/18 09:28:08;;;;;;;23.50;12.73;;;12.50;74.20;;;;;;5053146;28;20087;-73
2022/01/18 09:30:35;;;;;;;17.27;12.18;;;12.30;76.20;;;;;;5040467;28;20076;-78
2022/01/18 09:33:05;;;;;;;19.33;13.88;;;12.30;76.50;;;;;;5040289;28;20041;-74
2022/01/18 09:35:34;;;;;;;22.45;13.00;;;12.30;76.70;;;;;;5040739;28;20067;-72
2022/01/18 09:38:00;;;;;;;15.68;11.27;;;12.40;75.90;;;;;;5038568;28;20096;-73
2022/01/18 09:40:27;;;;;;;16.17;11.32;;;12.60;75.10;;;;;;5036222;28;20120;-74
2022/01/18 09:42:57;;;;;;;16.63;12.30;;;12.90;74.90;;;;;;5036573;28;20061;-79
2022/01/18 09:45:27;;;;;;;16.08;12.15;;;13.40;74.30;;;;;;5011511;28;20045;-72
2022/01/18 09:47:57;;;;;;;17.92;11.60;;;14.00;73.30;;;;;;5028009;28;20040;-73
2022/01/18 09:50:31;;;;;;;19.27;11.75;;;14.40;73.00;;;;;;5023375;28;20147;-74
2022/01/18 09:52:59;;;;;;;15.15;10.40;;;14.70;72.00;;;;;;5021490;28;20409;-73
2022/01/18 09:55:27;;;;;;;17.52;12.38;;;15.00;70.70;;;;;;5002792;28;20040;-77
2022/01/18 09:57:55;;;;;;;19.10;12.63;;;15.30;71.50;;;;;;5024608;28;21324;-78
2022/01/18 10:00:27;;;;;;;16.08;11.85;;;15.50;71.20;;;;;;5024782;28;20075;-73
2022/01/18 10:02:53;;;;;;;20.65;12.05;;;15.50;71.20;;;;;;5031093;28;20183;-77
2022/01/18 10:05:28;;;;;;;16.00;11.80;;;15.60;71.00;;;;;;4994370;28;20045;-73
2022/01/18 10:08:05;;;;;;;15.00;11.05;;;15.60;70.30;;;;;;5039401;28;20037;-75
2022/01/18 10:10:37;;;;;;;15.00;10.98;;;15.70;69.40;;;;;;5022704;28;20041;-74
2022/01/18 10:13:04;;;;;;;15.15;10.75;;;15.90;68.90;;;;;;5026479;28;20041;-77
2022/01/18 10:15:30;;;;;;;21.38;11.05;;;15.90;68.50;;;;;;5030452;28;20045;-73
2022/01/18 10:18:13;;;;;;;15.95;10.98;;;16.00;68.70;;;;;;5029669;28;20051;-72
2022/01/18 10:20:51;;;;;;;14.27;11.40;;;16.00;68.80;;;;;;4987847;28;20041;-73
2022/01/18 10:23:25;;;;;;;17.73;11.88;;;16.20;69.50;;;;;;5026890;28;20047;-73
2022/01/18 10:25:54;;;;;;;17.40;11.48;;;16.30;69.30;;;;;;5027352;28;20037;-75
2022/01/18 10:28:36;;;;;;;15.88;11.15;;;16.40;69.40;;;;;;5030250;28;20063;-74
2022/01/18 10:31:45;;;;;;;18.73;11.52;;;16.40;68.90;;;;;;5024474;28;20045;-73
2022/01/18 10:37:15;;;;;;;14.10;10.63;;;16.50;69.30;;;;;;5004200;28;20045;-75
2022/01/18 10:39:50;;;;;;;15.55;10.95;;;16.70;69.00;;;;;;5022076;28;20094;-74
2022/01/18 10:42:20;;;;;;;16.25;10.63;;;16.80;69.50;;;;;;5029847;28;20041;-77
2022/01/18 10:44:58;;;;;;;20.02;11.98;;;16.60;70.30;;;;;;5024635;28;20052;-77
2022/01/18 10:47:26;;;;;;;16.05;11.50;;;16.60;70.60;;;;;;5024025;28;20548;-74
2022/01/18 10:49:52;;;;;;;15.27;11.43;;;16.90;70.50;;;;;;5018648;28;20033;-74
2022/01/18 10:52:22;;;;;;;16.10;11.85;;;17.10;71.80;;;;;;5027958;28;20103;-73
2022/01/18 10:54:54;;;;;;;15.68;12.18;;;17.30;72.10;;;;;;5027191;28;20052;-76
2022/01/18 10:57:25;;;;;;;18.55;12.25;;;17.40;72.10;;;;;;5028886;28;20041;-74
2022/01/18 11:00:13;;;;;;;19.85;13.20;;;17.50;72.00;;;;;;5045481;28;20052;-78
2022/01/18 11:02:45;;;;;;;16.98;12.13;;;17.50;73.10;;;;;;5027311;28;20103;-76
2022/01/18 11:05:31;;;;;;;16.40;12.47;;;17.50;73.50;;;;;;5032480;28;20033;-75
2022/01/18 11:08:02;;;;;;;18.13;12.98;;;17.50;73.90;;;;;;5033362;28;20041;-76
2022/01/18 11:10:38;;;;;;;20.73;13.07;;;17.80;73.80;;;;;;5028275;28;20038;-79
2022/01/18 11:13:11;;;;;;;18.40;13.50;;;17.60;72.90;;;;;;5033098;28;20110;-74
2022/01/18 11:15:42;;;;;;;20.83;13.10;;;17.80;73.30;;;;;;5028082;28;20049;-75
2022/01/18 11:18:28;;;;;;;17.73;13.30;;;18.00;73.00;;;;;;5034167;28;20045;-74
2022/01/18 11:20:54;;;;;;;21.15;13.68;;;18.40;73.50;;;;;;5026402;28;20457;-76
2022/01/18 11:23:22;;;;;;;19.23;13.15;;;18.60;74.40;;;;;;5030767;28;20416;-74
2022/01/18 11:25:51;;;;;;;15.73;12.68;;;19.10;74.20;;;;;;5029192;28;20525;-78
2022/01/18 11:28:18;;;;;;;17.83;13.85;;;19.20;74.10;;;;;;5030888;28;20033;-77
2022/01/18 11:30:46;;;;;;;18.13;13.48;;;19.30;74.10;;;;;;5031885;28;20069;-74
2022/01/18 11:33:15;;;;;;;16.95;13.32;;;19.40;73.80;;;;;;5026177;28;20131;-76
2022/01/18 11:36:06;;;;;;;16.85;12.93;;;19.60;73.50;;;;;;5027020;28;20124;-76
2022/01/18 11:39:05;;;;;;;19.77;12.82;;;19.80;73.50;;;;;;5029005;28;20034;-73
2022/01/18 11:41:35;;;;;;;18.38;12.68;;;19.90;75.40;;;;;;5027338;28;20033;-76
2022/01/18 11:44:22;;;;;;;19.23;13.10;;;20.10;76.90;;;;;;5030552;28;20117;-74
2022/01/18 11:46:52;;;;;;;19.27;12.55;;;19.70;77.20;;;;;;5018003;28;20040;-74
2022/01/18 11:49:32;;;;;;;16.83;12.02;;;20.10;79.80;;;;;;5043359;28;25340;-74
2022/01/18 11:52:04;;;;;;;18.50;11.98;;;20.10;81.50;;;;;;5029059;28;20144;-78
2022/01/18 11:57:26;;;;;;;19.60;11.93;;;20.00;82.00;;;;;;5029600;28;20049;-73
2022/01/18 11:59:58;;;;;;;22.35;12.25;;;20.50;82.20;;;;;;5026443;28;20045;-77
2022/01/18 12:02:38;;;;;;;;;;;20.90;82.10;;;;;;5022404;28;20041;-74
2022/01/18 12:05:13;;;;;;;14.63;11.93;;;21.00;82.10;;;;;;5026141;28;19924;-77
2022/01/18 12:07:41;;;;;;;17.35;12.10;;;21.10;82.00;;;;;;5045023;28;21461;-76
2022/01/18 12:10:22;;;;;;;20.88;12.50;;;21.20;81.30;;;;;;5032106;28;20048;-74
2022/01/18 12:12:52;;;;;;;15.00;12.13;;;20.90;82.20;;;;;;5031762;28;20388;-73
2022/01/18 12:15:24;;;;;;;20.42;13.25;;;21.50;81.60;;;;;;5048784;28;27500;-76
2022/01/18 12:18:01;;;;;;;21.27;12.95;;;21.70;81.40;;;;;;5041159;28;20484;-73
2022/01/18 12:20:49;;;;;;;22.45;12.32;;;21.70;81.00;;;;;;5023379;28;20103;-74
2022/01/18 12:23:22;;;;;;;15.98;12.10;;;21.50;81.50;;;;;;5043910;28;20041;-75
2022/01/18 12:34:36;;;;;;;17.17;10.87;;;21.90;81.60;;;;;;5028857;28;20048;-74
2022/01/18 12:37:27;;;;;;;18.73;11.02;;;22.20;81.70;;;;;;5027931;28;20044;-78
2022/01/18 12:39:55;;;;;;;14.83;10.30;;;22.90;80.80;;;;;;5026624;28;20102;-76
2022/01/18 12:45:19;;;;;;;12.00;8.80;;;21.60;83.30;;;;;;5031068;28;20147;-80
2022/01/18 12:48:14;;;;;;;11.68;8.27;;;21.80;82.70;;;;;;5029888;28;20037;-73
2022/01/18 12:50:55;;;;;;;14.95;8.55;;;22.80;82.10;;;;;;5031273;28;20120;-80
2022/01/18 12:53:30;;;;;;;14.30;8.40;;;23.70;80.50;;;;;;5036019;28;20029;-75
2022/01/18 12:56:01;;;;;;;14.02;8.73;;;23.70;80.00;;;;;;5042498;28;20120;-78
2022/01/18 12:58:55;;;;;;;13.73;8.38;;;22.90;80.70;;;;;;5047555;28;20044;-74
2022/01/18 13:01:27;;;;;;;15.05;9.02;;;22.50;81.20;;;;;;5036004;28;20064;-78
2022/01/18 13:03:56;;;;;;;12.25;8.38;;;22.30;82.70;;;;;;5039585;28;20033;-75
2022/01/18 13:06:30;;;;;;;16.02;8.68;;;22.70;81.80;;;;;;5045357;28;20037;-76
2022/01/18 13:08:57;;;;;;;14.65;7.85;;;23.20;80.60;;;;;;5046310;28;20380;-74
2022/01/18 13:11:26;;;;;;;16.25;8.18;;;24.00;79.90;;;;;;5037090;28;20040;-76
2022/01/18 13:27:02;;;;;;;12.77;7.45;;;23.70;79.40;;;;;;5042450;28;20037;-77
2022/01/18 13:29:29;;;;;;;12.98;7.15;;;24.70;78.30;;;;;;5035547;28;20033;-73
2022/01/18 13:32:20;;;;;;;14.07;5.88;;;23.00;79.30;;;;;;5050346;28;20408;-78
2022/01/18 13:35:05;;;;;;;10.75;6.45;;;23.30;80.70;;;;;;5040723;28;20045;-79
2022/01/18 13:37:33;;;;;;;10.70;6.70;;;24.40;78.90;;;;;;5053468;28;20032;-76
2022/01/18 13:40:05;;;;;;;9.43;6.13;;;24.80;77.50;;;;;;5043005;28;20491;-75
2022/01/18 13:43:03;;;;;;;9.07;6.30;;;24.60;78.00;;;;;;5044839;28;20033;-80
2022/01/18 13:45:31;;;;;;;10.80;5.72;;;24.80;77.80;;;;;;5038112;28;20040;-74
2022/01/18 13:48:03;;;;;;;10.27;5.30;;;24.90;77.40;;;;;;5049657;28;20033;-74
2022/01/18 13:50:56;;;;;;;8.02;5.60;;;24.80;77.40;;;;;;5045740;28;20416;-79
2022/01/18 13:53:33;;;;;;;10.25;5.40;;;24.80;77.60;;;;;;5044097;28;20391;-74
2022/01/18 13:56:05;;;;;;;7.68;4.75;;;24.80;77.50;;;;;;5040537;28;20069;-74
2022/01/18 13:58:40;;;;;;;8.27;4.97;;;25.00;76.90;;;;;;5045808;28;20353;-78
2022/01/18 14:01:21;;;;;;;10.25;5.35;;;24.70;77.40;;;;;;5015504;28;20045;-75
2022/01/18 14:03:54;;;;;;;8.95;5.32;;;25.30;76.90;;;;;;5045717;28;20091;-79
2022/01/18 14:06:34;;;;;;;9.93;5.30;;;25.30;76.20;;;;;;5045860;28;20037;-79
2022/01/18 14:09:02;;;;;;;9.35;4.88;;;25.40;75.90;;;;;;5042691;28;20099;-75
2022/01/18 14:11:36;;;;;;;7.70;4.90;;;25.00;76.40;;;;;;5041463;28;20038;-73
2022/01/18 14:14:29;;;;;;;9.07;4.50;;;24.90;76.70;;;;;;5044957;28;20116;-75
2022/01/18 14:17:11;;;;;;;14.85;5.63;;;24.30;77.70;;;;;;5039343;28;20836;-79
2022/01/18 14:19:43;;;;;;;8.05;4.38;;;24.70;77.00;;;;;;5041510;28;20045;-76
2022/01/18 14:22:21;;;;;;;8.75;4.43;;;23.50;77.90;;;;;;5042658;28;20037;-73
2022/01/18 14:24:50;;;;;;;7.13;4.32;;;23.90;78.50;;;;;;5042970;28;20037;-75
2022/01/18 14:27:28;;;;;;;7.45;4.45;;;23.80;78.60;;;;;;5044814;28;20036;-74
2022/01/18 14:30:06;;;;;;;12.57;5.30;;;23.60;78.10;;;;;;5045903;28;20028;-76
2022/01/18 14:32:41;;;;;;;13.18;4.82;;;23.70;78.40;;;;;;5046829;28;20087;-73